Time;durP1;ratioP1;P1;durP2;ratioP2;P2;SDS_P1;SDS_P2;PMS_P1;PMS_P2;Temp;Humidity;BMP_temperature;BMP_pressure;BME280_temperature;BME280_humidity;BME280_pressure;Samples;Min_cycle;Max_cycle;Signal;HPM_P1;HPM_P2
2022/05/04 00:01:12;;;;;;;11.40;4.00;;;7.70;99.90;;;;;;4997834;28;20449;-67
2022/05/04 00:04:00;;;;;;;6.63;4.13;;;7.70;99.90;;;;;;4988580;28;20892;-67
2022/05/04 00:06:49;;;;;;;4.00;3.60;;;7.70;99.90;;;;;;4980999;28;20457;-66
2022/05/04 00:09:39;;;;;;;4.83;4.00;;;7.70;99.90;;;;;;4990618;28;21081;-66
2022/05/04 00:12:27;;;;;;;6.20;4.00;;;7.60;99.90;;;;;;4990786;28;20476;-66
2022/05/04 00:15:15;;;;;;;6.03;3.80;;;7.60;99.90;;;;;;4989271;28;21001;-66
2022/05/04 00:18:04;;;;;;;6.50;4.57;;;7.50;99.90;;;;;;4988042;28;20981;-66
2022/05/04 00:20:52;;;;;;;6.83;4.10;;;7.50;99.90;;;;;;4990282;28;21003;-66
2022/05/04 00:23:40;;;;;;;8.33;4.40;;;7.40;99.90;;;;;;4987901;28;20556;-66
2022/05/04 00:26:29;;;;;;;6.00;4.40;;;7.50;99.90;;;;;;4990925;28;20457;-66
2022/05/04 00:29:17;;;;;;;5.50;4.17;;;7.50;99.90;;;;;;4991148;28;21036;-67
2022/05/04 00:32:07;;;;;;;7.07;3.57;;;7.40;99.90;;;;;;4992475;28;20480;-67
2022/05/04 00:34:55;;;;;;;6.93;4.40;;;7.30;99.90;;;;;;4993431;28;20462;-67
2022/05/04 00:37:43;;;;;;;4.90;3.70;;;7.40;99.90;;;;;;4995433;28;20542;-67
2022/05/04 00:40:32;;;;;;;9.13;4.40;;;7.30;99.90;;;;;;4988933;28;20461;-67
2022/05/04 00:43:23;;;;;;;8.80;4.90;;;7.30;99.90;;;;;;4991770;28;20518;-67
2022/05/04 00:46:11;;;;;;;5.50;4.00;;;7.20;99.90;;;;;;4986170;28;21041;-67
2022/05/04 00:48:59;;;;;;;5.50;4.27;;;7.10;99.90;;;;;;4988815;28;20525;-67
2022/05/04 00:51:48;;;;;;;8.90;4.90;;;7.10;99.90;;;;;;4986216;28;20473;-67
2022/05/04 00:54:37;;;;;;;7.80;4.83;;;7.00;99.90;;;;;;4985831;28;20456;-67
2022/05/04 01:00:30;;;;;;;5.90;3.90;;;7.10;99.90;;;;;;4989816;28;20457;-67
2022/05/04 01:03:18;;;;;;;7.77;4.17;;;7.00;99.90;;;;;;4985032;28;20971;-67
2022/05/04 01:06:06;;;;;;;6.17;4.50;;;7.00;99.90;;;;;;4992700;28;20552;-67
2022/05/04 01:08:56;;;;;;;7.30;4.67;;;7.00;99.90;;;;;;4991352;28;21023;-67
2022/05/04 01:11:46;;;;;;;5.77;4.70;;;6.90;99.90;;;;;;4993206;28;20527;-66
2022/05/04 01:14:34;;;;;;;7.73;4.30;;;6.90;99.90;;;;;;4991758;28;20517;-67
2022/05/04 01:17:23;;;;;;;4.80;4.27;;;6.80;99.90;;;;;;4994282;28;20567;-67
2022/05/04 01:20:12;;;;;;;9.37;4.80;;;6.70;99.90;;;;;;4988733;28;20465;-67
2022/05/04 01:23:02;;;;;;;5.40;4.20;;;6.80;99.90;;;;;;4994074;28;20480;-67
2022/05/04 01:25:53;;;;;;;9.10;4.67;;;6.80;99.90;;;;;;4991335;28;20963;-67
2022/05/04 01:28:41;;;;;;;5.90;4.80;;;6.70;99.90;;;;;;4995393;28;20484;-67
2022/05/04 01:31:29;;;;;;;9.07;5.10;;;6.60;99.90;;;;;;4982898;28;20948;-67
2022/05/04 01:34:17;;;;;;;6.30;4.70;;;6.60;99.90;;;;;;4994011;28;21020;-67
2022/05/04 01:37:06;;;;;;;5.07;4.13;;;6.60;99.90;;;;;;4993048;28;20465;-67
2022/05/04 01:39:55;;;;;;;8.90;4.53;;;6.60;99.90;;;;;;4988184;28;20564;-67
2022/05/04 01:42:43;;;;;;;7.73;4.70;;;6.50;99.90;;;;;;4991948;28;20980;-67
2022/05/04 01:45:31;;;;;;;7.37;4.37;;;6.50;99.90;;;;;;4984141;28;20457;-67
2022/05/04 01:48:19;;;;;;;5.37;3.90;;;6.50;99.90;;;;;;4991510;28;20604;-67
2022/05/04 01:51:07;;;;;;;8.13;4.77;;;6.50;99.90;;;;;;4992642;28;23708;-67
2022/05/04 01:53:56;;;;;;;7.53;4.67;;;6.40;99.90;;;;;;4993884;28;20480;-68
2022/05/04 01:56:46;;;;;;;5.30;4.57;;;6.40;99.90;;;;;;4993143;28;20461;-67
2022/05/04 01:59:34;;;;;;;5.47;4.33;;;6.40;99.90;;;;;;4999617;28;20477;-67
2022/05/04 02:02:22;;;;;;;6.70;4.00;;;6.40;99.90;;;;;;4991982;28;21525;-67
2022/05/04 02:05:11;;;;;;;8.73;4.57;;;6.40;99.90;;;;;;4996340;28;20464;-67
2022/05/04 02:08:00;;;;;;;6.73;4.53;;;6.30;99.90;;;;;;4996662;28;20476;-67
2022/05/04 02:10:48;;;;;;;6.00;5.00;;;6.30;99.90;;;;;;4991231;28;20483;-68
2022/05/04 02:13:38;;;;;;;6.30;4.90;;;6.30;99.90;;;;;;4993983;28;20522;-67
2022/05/04 02:16:26;;;;;;;7.70;5.10;;;6.20;99.90;;;;;;4994813;28;20552;-67
2022/05/04 02:19:14;;;;;;;9.00;5.40;;;6.20;99.90;;;;;;4993943;28;20921;-67
2022/05/04 02:22:03;;;;;;;9.03;5.20;;;6.20;99.90;;;;;;4992141;28;20610;-67
2022/05/04 02:24:51;;;;;;;7.27;4.77;;;6.10;99.90;;;;;;4990682;28;20458;-67
2022/05/04 02:27:39;;;;;;;6.37;4.60;;;6.10;99.90;;;;;;4989161;28;20502;-67
2022/05/04 02:30:29;;;;;;;6.37;4.80;;;6.10;99.90;;;;;;4989267;28;20612;-67
2022/05/04 02:33:17;;;;;;;6.20;5.50;;;6.10;99.90;;;;;;4997965;28;20563;-67
2022/05/04 02:39:17;;;;;;;8.40;5.50;;;6.00;99.90;;;;;;4993648;28;20974;-67
2022/05/04 02:42:06;;;;;;;6.47;4.80;;;6.00;99.90;;;;;;4987062;28;20465;-68
2022/05/04 02:44:54;;;;;;;6.50;5.80;;;6.00;99.90;;;;;;4977988;28;20548;-67
2022/05/04 02:47:43;;;;;;;6.93;4.80;;;5.90;99.90;;;;;;4990825;28;20625;-67
2022/05/04 02:50:35;;;;;;;6.07;5.00;;;6.00;99.90;;;;;;4984290;28;20449;-67
2022/05/04 02:53:24;;;;;;;6.10;4.73;;;5.90;99.90;;;;;;4984234;28;20491;-67
2022/05/04 02:56:13;;;;;;;5.50;4.87;;;5.90;99.90;;;;;;4986171;28;20580;-67
2022/05/04 02:59:01;;;;;;;6.00;5.40;;;5.90;99.90;;;;;;4991558;28;21015;-67
2022/05/04 03:04:57;;;;;;;6.00;5.10;;;5.90;99.90;;;;;;4989678;28;20511;-67
2022/05/04 03:07:46;;;;;;;8.50;5.97;;;5.80;99.90;;;;;;4992513;28;21346;-67
2022/05/04 03:11:54;;;;;;;8.60;5.17;;;5.80;99.90;;;;;;4993438;28;20984;-67
2022/05/04 03:13:42;;;;;;;7.40;5.33;;;5.80;99.90;;;;;;4991533;28;20614;-67
2022/05/04 03:16:30;;;;;;;5.40;4.67;;;5.80;99.90;;;;;;4996229;28;20464;-67
2022/05/04 03:19:19;;;;;;;5.57;5.00;;;5.80;99.90;;;;;;4996514;28;20515;-67
2022/05/04 03:22:08;;;;;;;7.53;5.37;;;5.70;99.90;;;;;;4996609;28;20473;-67
2022/05/04 03:24:56;;;;;;;6.07;5.40;;;5.80;99.90;;;;;;4990306;28;20464;-67
2022/05/04 03:27:45;;;;;;;6.60;5.30;;;5.80;99.90;;;;;;4991770;28;20599;-67
2022/05/04 03:30:33;;;;;;;8.43;5.53;;;5.70;99.90;;;;;;4988030;28;20547;-67
2022/05/04 03:33:21;;;;;;;8.20;5.30;;;5.70;99.90;;;;;;4994060;28;20484;-67
2022/05/04 03:36:09;;;;;;;7.23;5.07;;;5.70;99.90;;;;;;4993598;28;20496;-67
2022/05/04 03:39:01;;;;;;;6.10;4.70;;;5.80;99.90;;;;;;4991268;28;20517;-67
2022/05/04 03:41:49;;;;;;;9.37;5.30;;;5.70;99.90;;;;;;4993447;28;20465;-67
2022/05/04 03:44:37;;;;;;;6.57;5.30;;;5.70;99.90;;;;;;4993177;28;20489;-67
2022/05/04 03:47:25;;;;;;;8.30;5.53;;;5.70;99.90;;;;;;4986180;28;20473;-67
2022/05/04 03:50:13;;;;;;;7.00;5.47;;;5.70;99.90;;;;;;4994206;28;20888;-67
2022/05/04 03:53:01;;;;;;;7.90;5.60;;;5.70;99.90;;;;;;4992416;28;20566;-67
2022/05/04 03:55:54;;;;;;;7.03;5.40;;;5.70;99.90;;;;;;4994834;28;20552;-67
2022/05/04 03:58:42;;;;;;;7.80;5.20;;;5.80;99.90;;;;;;4993982;28;21003;-67
2022/05/04 04:01:31;;;;;;;9.20;5.40;;;5.70;99.90;;;;;;4992124;28;21104;-67
2022/05/04 04:04:19;;;;;;;6.50;5.43;;;5.70;99.90;;;;;;4991539;28;20952;-67
2022/05/04 04:07:07;;;;;;;6.77;5.17;;;5.80;99.90;;;;;;4990454;28;20563;-67
2022/05/04 04:09:55;;;;;;;5.90;5.30;;;5.80;99.90;;;;;;4990947;28;20952;-67
2022/05/04 04:12:45;;;;;;;9.77;6.10;;;5.80;99.90;;;;;;4978372;28;20525;-67
2022/05/04 04:15:33;;;;;;;8.07;5.47;;;5.80;99.90;;;;;;4987938;28;20629;-67
2022/05/04 04:18:22;;;;;;;6.53;4.90;;;5.90;99.90;;;;;;4989867;28;21052;-67
2022/05/04 04:24:16;;;;;;;9.40;5.67;;;5.90;99.90;;;;;;4994060;28;21166;-67
2022/05/04 04:27:05;;;;;;;6.87;5.53;;;6.00;99.90;;;;;;4992301;28;20481;-67
2022/05/04 04:29:55;;;;;;;9.43;6.37;;;6.00;99.90;;;;;;4994037;28;20544;-67
2022/05/04 04:32:43;;;;;;;10.20;5.57;;;6.00;99.90;;;;;;4994853;28;20481;-67
2022/05/04 04:35:31;;;;;;;8.00;5.80;;;6.10;99.90;;;;;;4989218;28;20493;-68
2022/05/04 04:38:19;;;;;;;8.70;5.37;;;6.10;99.90;;;;;;4995128;28;20492;-68
2022/05/04 04:41:08;;;;;;;7.30;5.60;;;6.10;99.90;;;;;;4990547;28;20736;-68
2022/05/04 04:43:56;;;;;;;7.57;5.97;;;6.10;99.90;;;;;;4986716;28;20535;-68
2022/05/04 04:46:46;;;;;;;6.80;6.00;;;6.20;99.90;;;;;;4988526;28;20452;-68
2022/05/04 04:49:34;;;;;;;12.17;5.80;;;6.20;99.90;;;;;;4983549;28;20474;-68
2022/05/04 04:52:23;;;;;;;9.27;6.17;;;6.20;99.90;;;;;;4987043;28;20480;-68
2022/05/04 04:55:12;;;;;;;12.30;6.50;;;6.20;99.90;;;;;;4987474;28;20564;-68
2022/05/04 04:58:00;;;;;;;9.57;5.70;;;6.30;99.90;;;;;;4984426;28;20878;-68
2022/05/04 05:00:48;;;;;;;9.37;6.77;;;6.30;99.90;;;;;;4980916;28;20531;-68
2022/05/04 05:03:38;;;;;;;6.70;6.00;;;6.30;99.90;;;;;;4990712;28;20475;-68
2022/05/04 05:06:26;;;;;;;7.47;5.50;;;6.30;99.90;;;;;;4992919;28;20996;-67
2022/05/04 05:09:14;;;;;;;10.50;6.87;;;6.40;99.90;;;;;;4985241;28;20491;-67
2022/05/04 05:12:02;;;;;;;8.80;6.10;;;6.40;99.90;;;;;;4981352;28;20484;-68
2022/05/04 05:18:00;;;;;;;8.47;5.93;;;6.50;99.90;;;;;;4989840;28;20489;-69
2022/05/04 05:20:50;;;;;;;13.03;6.77;;;6.60;99.90;;;;;;4979534;28;20450;-69
2022/05/04 05:23:43;;;;;;;8.10;5.83;;;6.70;99.90;;;;;;4977731;28;20560;-66
2022/05/04 05:26:31;;;;;;;7.57;5.90;;;6.70;99.90;;;;;;4987058;28;20603;-67
2022/05/04 05:29:19;;;;;;;9.77;5.50;;;6.80;99.90;;;;;;4982086;28;20997;-67
2022/05/04 05:32:08;;;;;;;6.07;5.37;;;6.80;99.90;;;;;;4984417;28;20464;-67
2022/05/04 05:34:56;;;;;;;9.47;6.33;;;6.90;99.90;;;;;;4990458;28;20993;-66
2022/05/04 05:37:46;;;;;;;7.40;5.40;;;6.90;99.90;;;;;;4986854;28;21079;-67
2022/05/04 05:40:38;;;;;;;7.83;5.53;;;7.00;99.90;;;;;;4986028;28;20986;-67
2022/05/04 05:43:26;;;;;;;5.93;5.30;;;7.00;99.90;;;;;;4990655;28;20477;-67
2022/05/04 05:46:14;;;;;;;7.83;5.63;;;7.10;99.90;;;;;;4993160;28;20550;-67
2022/05/04 05:49:02;;;;;;;6.90;5.77;;;7.20;99.90;;;;;;4998077;28;20555;-67
2022/05/04 05:51:50;;;;;;;7.73;4.93;;;7.20;99.90;;;;;;4997627;28;20496;-67
2022/05/04 05:54:40;;;;;;;4.77;4.30;;;7.30;99.90;;;;;;4997988;28;21632;-66
2022/05/04 05:57:28;;;;;;;10.53;5.10;;;7.40;99.90;;;;;;4995624;28;20473;-66
2022/05/04 06:00:21;;;;;;;11.07;4.90;;;7.40;99.90;;;;;;4996731;28;20468;-66
2022/05/04 06:03:09;;;;;;;9.37;4.40;;;7.50;99.90;;;;;;4998078;28;20476;-67
2022/05/04 06:05:57;;;;;;;9.63;4.23;;;7.50;99.90;;;;;;4998291;28;20496;-66
2022/05/04 06:08:45;;;;;;;6.83;3.40;;;7.60;99.90;;;;;;4992367;28;20563;-66
2022/05/04 06:11:36;;;;;;;7.40;3.63;;;7.60;99.90;;;;;;4994170;28;20555;-65
2022/05/04 06:14:26;;;;;;;8.20;4.07;;;7.70;99.90;;;;;;4999464;28;20939;-66
2022/05/04 06:17:14;;;;;;;3.67;3.03;;;7.70;99.90;;;;;;4998998;28;20544;-66
2022/05/04 06:20:03;;;;;;;7.37;3.07;;;7.80;99.90;;;;;;4998837;28;20461;-67
2022/05/04 06:22:51;;;;;;;5.10;2.90;;;7.80;99.90;;;;;;4996990;28;20564;-66
2022/05/04 06:25:41;;;;;;;3.90;2.60;;;7.90;99.90;;;;;;4997760;28;20587;-66
2022/05/04 06:28:30;;;;;;;3.50;2.60;;;8.00;99.90;;;;;;4994120;28;20480;-66
2022/05/04 06:34:25;;;;;;;3.53;2.37;;;8.10;99.90;;;;;;4994169;28;20563;-66
2022/05/04 06:37:13;;;;;;;3.93;2.57;;;8.20;99.90;;;;;;4998976;28;20531;-66
2022/05/04 06:40:01;;;;;;;5.63;2.80;;;8.20;99.90;;;;;;4994198;28;20462;-67
2022/05/04 06:42:49;;;;;;;3.53;2.80;;;8.30;99.90;;;;;;4996474;28;21004;-66
2022/05/04 06:45:39;;;;;;;4.20;2.43;;;8.30;99.90;;;;;;4982296;28;20616;-66
2022/05/04 06:48:27;;;;;;;4.17;2.87;;;8.40;99.90;;;;;;4993773;28;20850;-66
2022/05/04 06:51:17;;;;;;;8.67;2.53;;;8.50;99.90;;;;;;4997717;28;20619;-66
2022/05/04 06:54:05;;;;;;;4.00;2.20;;;8.50;99.90;;;;;;4998730;28;20468;-66
2022/05/04 06:57:13;;;;;;;6.33;2.60;;;8.60;99.90;;;;;;4998988;28;20506;-67
2022/05/04 07:00:04;;;;;;;5.70;2.00;;;8.60;99.90;;;;;;4996663;28;20456;-67
2022/05/04 07:02:53;;;;;;;7.40;2.57;;;8.70;99.90;;;;;;4994423;28;20482;-67
2022/05/04 07:05:42;;;;;;;4.00;2.50;;;8.70;99.90;;;;;;4994262;28;20456;-66
2022/05/04 07:08:30;;;;;;;3.27;2.50;;;8.70;99.90;;;;;;4994794;28;20489;-66
2022/05/04 07:11:18;;;;;;;2.70;2.40;;;8.80;99.90;;;;;;4992168;28;20535;-66
2022/05/04 07:14:07;;;;;;;6.43;2.60;;;8.90;99.90;;;;;;4997178;28;20889;-67
2022/05/04 07:16:55;;;;;;;4.50;2.10;;;9.00;99.90;;;;;;4995027;28;20583;-66
2022/05/04 07:19:46;;;;;;;8.20;3.13;;;9.00;99.90;;;;;;4999866;28;20479;-66
2022/05/04 07:22:35;;;;;;;4.93;2.97;;;9.10;99.90;;;;;;4996730;28;20510;-66
2022/05/04 07:25:26;;;;;;;5.33;2.50;;;9.20;99.90;;;;;;4995533;28;20456;-66
2022/05/04 07:28:14;;;;;;;5.60;2.43;;;9.30;99.90;;;;;;4994436;28;20986;-66
2022/05/04 07:31:03;;;;;;;5.00;2.60;;;9.40;99.90;;;;;;4996186;28;20511;-66
2022/05/04 07:33:51;;;;;;;3.90;2.60;;;9.40;99.90;;;;;;4995293;28;20567;-67
2022/05/04 07:36:41;;;;;;;2.73;2.47;;;9.40;99.90;;;;;;4995921;28;20489;-66
2022/05/04 07:42:39;;;;;;;4.80;3.10;;;9.40;99.90;;;;;;4996124;28;20469;-68
2022/05/04 07:45:28;;;;;;;3.57;2.67;;;9.40;99.90;;;;;;4988694;28;22838;-67
2022/05/04 07:48:16;;;;;;;5.23;3.00;;;9.50;99.90;;;;;;4996289;28;20516;-67
2022/05/04 07:51:04;;;;;;;6.70;2.90;;;9.50;99.90;;;;;;4996152;28;20448;-67
2022/05/04 07:53:54;;;;;;;3.40;2.70;;;9.70;99.90;;;;;;4993274;28;20476;-68
2022/05/04 07:56:42;;;;;;;6.23;2.60;;;9.70;99.90;;;;;;4995237;28;20538;-67
2022/05/04 07:59:30;;;;;;;4.30;3.10;;;9.80;99.90;;;;;;4994606;28;20615;-68
2022/05/04 08:05:28;;;;;;;7.73;2.60;;;9.90;99.90;;;;;;4996640;28;20488;-68
2022/05/04 08:08:16;;;;;;;4.83;2.23;;;9.90;99.90;;;;;;4995307;28;20567;-68
2022/05/04 08:11:06;;;;;;;3.80;2.70;;;10.00;99.90;;;;;;4995065;28;20492;-67
2022/05/04 08:13:54;;;;;;;4.73;2.70;;;10.10;99.90;;;;;;4995079;28;20555;-67
2022/05/04 08:16:47;;;;;;;4.00;2.80;;;10.20;99.90;;;;;;4995844;28;21045;-68
2022/05/04 08:19:37;;;;;;;5.47;2.80;;;10.20;99.90;;;;;;4995920;28;20477;-68
2022/05/04 08:22:26;;;;;;;3.07;2.33;;;10.20;99.90;;;;;;4993082;28;20578;-68
2022/05/04 08:25:16;;;;;;;4.13;2.50;;;10.30;99.90;;;;;;4991531;28;21060;-68
2022/05/04 08:28:06;;;;;;;5.93;2.90;;;10.40;99.90;;;;;;4995350;28;20479;-68
2022/05/04 08:30:54;;;;;;;6.57;3.30;;;10.40;99.90;;;;;;4996979;28;20546;-67
2022/05/04 08:33:42;;;;;;;4.97;2.97;;;10.50;99.90;;;;;;4991399;28;20564;-67
2022/05/04 08:36:31;;;;;;;3.83;2.60;;;10.40;99.90;;;;;;4993540;28;20496;-69
2022/05/04 08:39:19;;;;;;;4.90;2.70;;;10.50;99.90;;;;;;4992921;28;20598;-68
2022/05/04 08:42:08;;;;;;;5.07;2.60;;;10.60;99.90;;;;;;4994454;28;21502;-68
2022/05/04 08:44:58;;;;;;;5.10;2.77;;;10.70;99.90;;;;;;4996328;28;20600;-68
2022/05/04 08:47:46;;;;;;;3.90;2.50;;;10.70;99.90;;;;;;4996875;28;20452;-68
2022/05/04 08:50:37;;;;;;;5.57;3.10;;;10.80;99.90;;;;;;4995388;28;20463;-68
2022/05/04 08:53:27;;;;;;;4.43;2.70;;;10.80;99.90;;;;;;4992463;28;20962;-68
2022/05/04 08:56:15;;;;;;;5.43;2.60;;;10.80;99.90;;;;;;4996108;28;20475;-68
2022/05/04 08:59:04;;;;;;;5.77;3.03;;;10.90;99.90;;;;;;4996052;28;20638;-68
2022/05/04 09:01:53;;;;;;;4.10;3.10;;;11.00;99.90;;;;;;4992863;28;20575;-68
2022/05/04 09:04:42;;;;;;;6.70;2.87;;;10.90;99.90;;;;;;4994749;28;20461;-68
2022/05/04 09:07:31;;;;;;;4.77;3.00;;;11.00;99.90;;;;;;4993888;28;20556;-68
2022/05/04 09:10:21;;;;;;;3.10;2.80;;;11.00;99.90;;;;;;4997745;28;20522;-67
2022/05/04 09:13:09;;;;;;;5.80;3.40;;;11.10;99.90;;;;;;4994125;28;20999;-68
2022/05/04 09:15:58;;;;;;;2.90;2.60;;;11.20;99.90;;;;;;4992688;28;20926;-68
2022/05/04 09:18:47;;;;;;;3.13;2.77;;;11.30;99.90;;;;;;4984710;28;20481;-68
2022/05/04 09:21:36;;;;;;;4.30;2.43;;;11.40;99.90;;;;;;4996413;28;20600;-68
2022/05/04 09:24:28;;;;;;;4.60;3.43;;;11.50;99.90;;;;;;5000395;28;20463;-67
2022/05/04 09:27:17;;;;;;;4.53;3.13;;;11.50;99.90;;;;;;4996908;28;20581;-68
2022/05/04 09:30:06;;;;;;;3.90;3.30;;;11.60;99.90;;;;;;4995028;28;21103;-68
2022/05/04 09:32:55;;;;;;;4.47;2.93;;;11.70;99.90;;;;;;4998998;28;20472;-67
2022/05/04 09:35:45;;;;;;;4.40;2.80;;;11.70;99.90;;;;;;4999905;28;20543;-67
2022/05/04 09:44:55;;;;;;;5.17;3.00;;;11.70;99.90;;;;;;4996675;28;20474;-67
2022/05/04 09:47:47;;;;;;;4.90;3.40;;;11.70;99.90;;;;;;4998712;28;20492;-67
2022/05/04 09:50:40;;;;;;;6.03;3.33;;;11.90;99.90;;;;;;4995545;28;20486;-67
2022/05/04 09:53:29;;;;;;;3.47;3.17;;;11.90;99.90;;;;;;4994335;28;20473;-67
2022/05/04 09:56:18;;;;;;;6.10;3.37;;;12.00;99.90;;;;;;4999219;28;20510;-68
2022/05/04 09:59:07;;;;;;;4.17;3.00;;;12.10;99.90;;;;;;4998402;28;20480;-67
2022/05/04 10:01:56;;;;;;;14.03;4.03;;;12.10;99.90;;;;;;4993091;28;20471;-68
2022/05/04 10:04:46;;;;;;;5.90;2.70;;;12.20;99.90;;;;;;4992064;28;20458;-67
2022/05/04 10:07:36;;;;;;;3.80;3.10;;;12.20;99.90;;;;;;4995183;28;21089;-67
2022/05/04 10:10:26;;;;;;;3.93;3.43;;;12.30;99.90;;;;;;4992703;28;20822;-68
2022/05/04 10:13:18;;;;;;;3.87;3.03;;;12.30;99.90;;;;;;4996228;28;20517;-68
2022/05/04 10:16:10;;;;;;;4.80;3.23;;;12.30;99.90;;;;;;4990802;28;20481;-68
2022/05/04 10:19:00;;;;;;;4.97;3.03;;;12.30;99.90;;;;;;4998995;28;20567;-68
2022/05/04 10:21:53;;;;;;;7.97;3.60;;;12.40;99.90;;;;;;4995344;28;20465;-68
2022/05/04 10:24:44;;;;;;;4.97;2.93;;;12.50;99.90;;;;;;4994742;28;20858;-68
2022/05/04 10:27:41;;;;;;;4.73;3.83;;;12.50;99.90;;;;;;4992737;28;20456;-68
2022/05/04 10:30:31;;;;;;;6.60;3.67;;;12.60;99.90;;;;;;4998231;28;20476;-67
2022/05/04 10:33:24;;;;;;;4.37;3.93;;;12.70;99.90;;;;;;4995394;28;20615;-67
2022/05/04 10:36:17;;;;;;;4.37;3.97;;;12.70;99.90;;;;;;4994790;28;20539;-68
2022/05/04 10:39:06;;;;;;;6.20;3.40;;;12.70;99.90;;;;;;4995665;28;20492;-68
2022/05/04 10:41:55;;;;;;;5.00;3.87;;;12.80;99.90;;;;;;4992679;28;20468;-68
2022/05/04 10:44:54;;;;;;;7.30;3.60;;;12.90;99.90;;;;;;4998976;28;20595;-67
2022/05/04 10:47:43;;;;;;;4.50;3.73;;;13.10;99.90;;;;;;4999799;28;20471;-68
2022/05/04 10:50:47;;;;;;;5.07;3.50;;;13.20;99.90;;;;;;4997294;28;20588;-68
2022/05/04 10:53:41;;;;;;;3.53;3.13;;;13.30;99.90;;;;;;4996565;28;20496;-67
2022/05/04 10:56:36;;;;;;;3.60;3.30;;;13.50;99.90;;;;;;5001326;28;20550;-68
2022/05/04 10:59:26;;;;;;;5.73;3.53;;;13.50;99.90;;;;;;4998450;28;20573;-68
2022/05/04 11:02:19;;;;;;;5.10;3.00;;;13.50;99.90;;;;;;4990613;28;20644;-68
2022/05/04 11:05:13;;;;;;;5.10;3.40;;;13.60;99.90;;;;;;4990717;28;20471;-68
2022/05/04 11:08:05;;;;;;;4.53;3.67;;;13.60;99.90;;;;;;4997194;28;20615;-68
2022/05/04 11:10:54;;;;;;;4.57;3.93;;;13.70;99.90;;;;;;4993235;28;20464;-67
2022/05/04 11:13:44;;;;;;;3.53;3.20;;;13.80;99.90;;;;;;4994495;28;20963;-67
2022/05/04 11:16:32;;;;;;;5.80;3.77;;;13.90;99.90;;;;;;4995329;28;20468;-67
2022/05/04 11:19:24;;;;;;;5.30;3.10;;;13.90;99.90;;;;;;4992891;28;21091;-67
2022/05/04 11:22:14;;;;;;;5.37;4.30;;;13.90;99.90;;;;;;4992553;28;20580;-67
2022/05/04 11:25:22;;;;;;;7.67;5.30;;;13.90;99.90;;;;;;4979144;28;20456;-67
2022/05/04 11:28:10;;;;;;;11.70;7.77;;;13.80;99.90;;;;;;4986681;28;20524;-68
2022/05/04 11:30:58;;;;;;;11.90;8.80;;;13.90;99.90;;;;;;4989683;28;20548;-67
2022/05/04 11:33:48;;;;;;;14.30;10.10;;;14.00;99.90;;;;;;4989989;28;20485;-68
2022/05/04 11:36:37;;;;;;;10.70;7.53;;;14.00;99.90;;;;;;4993157;28;21254;-68
2022/05/04 11:39:27;;;;;;;10.07;5.73;;;14.10;99.90;;;;;;4987308;28;20543;-69
2022/05/04 11:42:15;;;;;;;9.23;7.13;;;14.10;99.90;;;;;;4980159;28;20488;-68
2022/05/04 11:45:04;;;;;;;6.50;5.87;;;14.20;99.90;;;;;;4983154;28;20465;-68
2022/05/04 11:47:52;;;;;;;4.73;4.30;;;14.30;99.90;;;;;;4992063;28;20488;-68
2022/05/04 11:50:42;;;;;;;4.80;4.30;;;14.40;99.90;;;;;;4984831;28;20446;-69
2022/05/04 11:53:34;;;;;;;5.03;4.53;;;14.60;99.90;;;;;;4982537;28;21092;-68
2022/05/04 11:56:22;;;;;;;6.03;3.93;;;14.60;99.90;;;;;;4982282;28;20489;-68
2022/05/04 11:59:10;;;;;;;6.27;5.13;;;14.60;99.90;;;;;;4978494;28;21068;-68
2022/05/04 12:01:59;;;;;;;5.20;4.60;;;14.70;99.90;;;;;;4994989;28;20571;-68
2022/05/04 12:04:48;;;;;;;6.07;4.70;;;14.90;99.90;;;;;;4995169;28;20921;-68
2022/05/04 12:07:36;;;;;;;4.50;4.10;;;15.00;99.90;;;;;;4996205;28;20515;-68
2022/05/04 12:10:26;;;;;;;8.00;4.30;;;15.30;99.90;;;;;;4992756;28;20973;-69
2022/05/04 12:13:16;;;;;;;5.00;4.40;;;15.50;99.90;;;;;;4994571;28;20481;-68
2022/05/04 12:16:05;;;;;;;4.63;3.97;;;15.50;99.90;;;;;;4989906;28;20472;-69
2022/05/04 12:18:53;;;;;;;5.27;4.03;;;15.60;99.90;;;;;;4985768;28;20485;-69
2022/05/04 12:21:43;;;;;;;7.07;3.77;;;15.60;99.90;;;;;;4985621;28;20463;-69
2022/05/04 12:24:31;;;;;;;4.60;3.90;;;15.70;99.90;;;;;;4992689;28;20554;-69
2022/05/04 12:27:21;;;;;;;5.30;4.40;;;15.70;99.90;;;;;;4995574;28;20595;-68
2022/05/04 12:33:16;;;;;;;5.10;3.93;;;15.50;99.90;;;;;;4981656;28;20507;-68
2022/05/04 12:36:07;;;;;;;4.53;3.63;;;15.30;99.90;;;;;;4987375;28;20464;-68
2022/05/04 12:38:56;;;;;;;4.10;3.63;;;15.30;99.90;;;;;;4984803;28;20521;-68
2022/05/04 12:41:45;;;;;;;6.57;4.30;;;15.40;99.90;;;;;;4984302;28;20477;-68
2022/05/04 12:44:34;;;;;;;8.90;4.40;;;15.50;99.90;;;;;;4989080;28;20984;-68
2022/05/04 12:47:24;;;;;;;5.00;4.47;;;15.60;99.90;;;;;;4987880;28;20567;-68
2022/05/04 12:50:13;;;;;;;6.77;4.20;;;15.70;99.90;;;;;;4989193;28;20457;-68
2022/05/04 12:53:01;;;;;;;6.10;4.67;;;15.80;99.90;;;;;;4989079;28;20575;-68
2022/05/04 12:58:55;;;;;;;4.30;3.90;;;16.20;99.90;;;;;;4980717;28;21033;-69
2022/05/04 13:01:45;;;;;;;6.80;3.53;;;16.30;99.90;;;;;;4992230;28;20583;-69
2022/05/04 13:04:33;;;;;;;4.50;3.80;;;16.50;99.90;;;;;;4992970;28;20458;-69
2022/05/04 13:07:22;;;;;;;5.07;3.87;;;16.50;99.90;;;;;;4985681;28;20477;-69
2022/05/04 13:10:11;;;;;;;5.73;3.70;;;16.60;99.90;;;;;;4989185;28;20453;-68
2022/05/04 13:12:59;;;;;;;4.23;3.43;;;16.70;99.90;;;;;;4974054;28;20911;-68
2022/05/04 13:15:53;;;;;;;5.23;3.60;;;16.70;99.90;;;;;;4988979;28;20860;-69
2022/05/04 13:18:43;;;;;;;4.20;3.50;;;16.80;99.90;;;;;;4984371;28;20509;-68
2022/05/04 13:21:31;;;;;;;5.03;3.90;;;16.90;99.90;;;;;;4990591;28;20602;-68
2022/05/04 13:24:22;;;;;;;4.90;3.50;;;17.00;99.90;;;;;;4993756;28;20477;-68
2022/05/04 13:27:10;;;;;;;4.10;3.70;;;17.10;99.90;;;;;;4992581;28;20464;-69
2022/05/04 13:29:58;;;;;;;5.97;4.27;;;17.30;99.90;;;;;;4992139;28;20449;-69
2022/05/04 13:32:46;;;;;;;5.50;4.00;;;17.40;99.90;;;;;;4993629;28;20559;-68
2022/05/04 13:35:37;;;;;;;4.90;3.57;;;17.30;99.90;;;;;;4983870;28;20570;-69
2022/05/04 13:38:25;;;;;;;3.53;2.80;;;17.30;99.90;;;;;;4981938;28;20583;-69
2022/05/04 13:41:14;;;;;;;5.03;3.37;;;17.40;99.90;;;;;;4988429;28;20559;-69
2022/05/04 13:44:03;;;;;;;3.40;3.10;;;17.50;99.90;;;;;;4987540;28;20484;-69
2022/05/04 13:46:51;;;;;;;4.00;3.60;;;17.60;99.90;;;;;;4984548;28;20563;-69
2022/05/04 13:49:39;;;;;;;4.87;3.70;;;17.70;99.90;;;;;;4993105;28;20489;-69
2022/05/04 13:55:36;;;;;;;8.07;3.60;;;18.10;99.90;;;;;;4996262;28;20465;-68
2022/05/04 13:58:25;;;;;;;4.83;4.33;;;18.30;99.90;;;;;;4988361;28;20554;-67
2022/05/04 14:01:14;;;;;;;5.77;3.87;;;18.40;99.90;;;;;;4995459;28;20550;-67
2022/05/04 14:04:03;;;;;;;4.80;4.40;;;18.60;99.90;;;;;;4978347;28;20476;-68
2022/05/04 14:06:53;;;;;;;3.53;3.23;;;18.70;99.90;;;;;;4990193;28;20471;-68
2022/05/04 14:09:42;;;;;;;5.63;4.20;;;18.90;99.90;;;;;;5001211;28;20555;-68
2022/05/04 14:12:30;;;;;;;5.23;3.83;;;19.00;99.90;;;;;;4997941;28;20457;-68
2022/05/04 14:15:19;;;;;;;3.83;3.37;;;19.30;99.90;;;;;;4994086;28;20583;-67
2022/05/04 14:18:09;;;;;;;4.03;3.63;;;19.40;99.90;;;;;;4996372;28;21110;-66
2022/05/04 14:20:59;;;;;;;5.20;3.43;;;19.40;99.90;;;;;;4991645;28;20463;-66
2022/05/04 14:23:47;;;;;;;4.27;3.43;;;19.80;99.90;;;;;;4976778;28;20521;-66
2022/05/04 14:26:36;;;;;;;4.13;3.67;;;20.20;99.90;;;;;;4974798;28;20449;-67
2022/05/04 14:29:25;;;;;;;5.90;4.17;;;20.10;99.90;;;;;;4993545;28;20476;-67
2022/05/04 14:32:13;;;;;;;5.40;4.23;;;20.00;99.90;;;;;;4996463;28;20900;-66
2022/05/04 14:35:02;;;;;;;6.97;3.37;;;20.40;99.90;;;;;;4988233;28;20477;-66
2022/05/04 14:37:50;;;;;;;3.93;3.57;;;20.70;99.90;;;;;;4992217;28;21055;-66
2022/05/04 14:40:41;;;;;;;5.83;3.30;;;21.40;99.90;;;;;;4998492;28;20481;-66
2022/05/04 14:43:30;;;;;;;3.77;3.50;;;21.90;99.90;;;;;;4995762;28;20895;-66
2022/05/04 14:46:18;;;;;;;3.60;3.20;;;22.00;99.90;;;;;;4996139;28;20449;-66
2022/05/04 14:49:07;;;;;;;5.10;3.10;;;21.80;99.90;;;;;;4998022;28;20563;-66
2022/05/04 14:51:56;;;;;;;3.60;3.30;;;21.70;99.90;;;;;;4997074;28;21029;-67
2022/05/04 14:54:44;;;;;;;5.30;3.23;;;21.40;99.90;;;;;;4995785;28;20694;-66
2022/05/04 14:57:32;;;;;;;6.43;3.70;;;21.30;99.90;;;;;;4991963;28;20870;-66
2022/05/04 15:00:22;;;;;;;4.07;3.43;;;21.40;99.90;;;;;;4994268;28;21042;-66
2022/05/04 15:06:15;;;;;;;6.97;3.97;;;21.10;99.90;;;;;;4992281;28;20666;-66
2022/05/04 15:09:04;;;;;;;4.77;3.57;;;20.50;99.90;;;;;;4995168;28;20491;-66
2022/05/04 15:11:52;;;;;;;4.20;3.50;;;20.60;99.90;;;;;;4993377;28;20705;-66
2022/05/04 15:14:40;;;;;;;5.23;2.97;;;20.60;99.90;;;;;;4992271;28;20457;-66
2022/05/04 15:17:30;;;;;;;3.60;3.30;;;20.60;99.90;;;;;;4993038;28;20558;-66
2022/05/04 15:20:18;;;;;;;4.90;3.33;;;20.40;99.90;;;;;;4994745;28;20497;-66
2022/05/04 15:23:07;;;;;;;4.27;3.10;;;20.30;99.90;;;;;;4994852;28;20491;-66
2022/05/04 15:25:55;;;;;;;3.80;3.50;;;20.20;99.90;;;;;;4992977;28;20896;-66
2022/05/04 15:28:43;;;;;;;4.13;3.40;;;20.20;99.90;;;;;;4997656;28;20508;-67
2022/05/04 15:31:31;;;;;;;4.67;3.27;;;19.70;99.90;;;;;;4996102;28;21104;-66